createdAt,value
2017-06-16T00:00:29.777Z,74.70
2017-06-16T00:02:57.286Z,75.00
2017-06-16T00:05:24.820Z,75.10
2017-06-16T00:07:52.382Z,75.20
2017-06-16T00:10:19.935Z,75.20
2017-06-16T00:12:48.199Z,75.50
2017-06-16T00:15:16.505Z,75.60
2017-06-16T00:17:44.006Z,75.60
2017-06-16T00:20:11.624Z,75.70
2017-06-16T00:22:39.127Z,75.80
2017-06-16T00:25:06.735Z,75.70
2017-06-16T00:27:34.239Z,76.20
2017-06-16T00:30:01.750Z,76.60
2017-06-16T00:32:29.272Z,76.70
2017-06-16T00:34:56.776Z,76.80
2017-06-16T00:37:24.295Z,76.90
2017-06-16T00:39:52.603Z,77.50
2017-06-16T00:42:20.131Z,76.80
2017-06-16T00:44:48.407Z,77.70
2017-06-16T00:47:16.715Z,77.40
2017-06-16T00:49:44.225Z,77.20
2017-06-16T00:52:11.743Z,77.20
2017-06-16T00:54:39.491Z,77.30
2017-06-16T00:57:07.011Z,77.30
2017-06-16T00:59:34.622Z,77.30
2017-06-16T01:02:02.143Z,77.20
2017-06-16T01:04:30.415Z,76.20
2017-06-16T01:06:59.231Z,75.30
2017-06-16T01:09:26.795Z,75.20
2017-06-16T01:11:54.350Z,74.90
2017-06-16T01:14:21.871Z,73.90
2017-06-16T01:16:49.472Z,73.30
2017-06-16T01:19:16.999Z,72.60
2017-06-16T01:21:45.720Z,72.20
2017-06-16T01:24:13.274Z,72.10
2017-06-16T01:26:40.778Z,71.30
2017-06-16T01:29:08.303Z,70.50
2017-06-16T01:31:35.808Z,70.30
2017-06-16T01:34:03.314Z,68.30
2017-06-16T01:36:30.874Z,67.80
2017-06-16T01:38:58.379Z,67.90
2017-06-16T01:41:25.898Z,66.50
2017-06-16T01:43:53.406Z,64.20
2017-06-16T01:46:21.703Z,63.60
2017-06-16T01:48:49.211Z,63.50
2017-06-16T01:51:16.731Z,63.50
2017-06-16T01:53:44.295Z,63.50
2017-06-16T01:56:11.971Z,63.60
2017-06-16T01:58:39.474Z,63.50
2017-06-16T02:01:06.979Z,63.50
2017-06-16T02:03:34.529Z,63.30
2017-06-16T02:06:02.088Z,63.30
2017-06-16T02:08:29.611Z,63.10
2017-06-16T02:10:57.918Z,62.70
2017-06-16T02:13:25.480Z,62.50
2017-06-16T02:15:52.983Z,62.20
2017-06-16T02:18:20.499Z,62.10
2017-06-16T02:20:48.319Z,62.50
2017-06-16T02:23:15.842Z,61.70
2017-06-16T02:25:43.375Z,61.40
2017-06-16T02:28:10.935Z,60.80
2017-06-16T02:30:38.491Z,59.90
2017-06-16T02:33:06.000Z,59.60
2017-06-16T02:35:33.519Z,59.00
2017-06-16T02:38:01.027Z,58.10
2017-06-16T02:40:28.555Z,57.50
2017-06-16T02:42:56.058Z,57.00
2017-06-16T02:45:24.359Z,56.40
2017-06-16T02:47:51.916Z,56.40
2017-06-16T02:50:19.438Z,56.20
2017-06-16T02:52:46.946Z,55.90
2017-06-16T02:55:15.003Z,55.90
2017-06-16T02:57:42.507Z,56.00
2017-06-16T03:00:10.049Z,55.90
2017-06-16T03:02:38.122Z,56.20
2017-06-16T03:05:05.626Z,56.40
2017-06-16T03:07:33.915Z,56.80
2017-06-16T03:10:01.419Z,56.70
2017-06-16T03:12:28.999Z,57.20
2017-06-16T03:14:56.598Z,57.30
2017-06-16T03:17:24.163Z,57.40
2017-06-16T03:19:51.719Z,57.70
2017-06-16T03:22:19.234Z,57.90
2017-06-16T03:24:52.438Z,58.00
2017-06-16T03:27:20.747Z,57.80
2017-06-16T03:29:48.254Z,57.80
2017-06-16T03:32:15.862Z,57.70
2017-06-16T03:34:43.532Z,57.80
2017-06-16T03:37:11.050Z,57.60
2017-06-16T03:39:39.567Z,58.30
2017-06-16T03:42:07.123Z,57.70
2017-06-16T03:44:34.641Z,57.60
2017-06-16T03:47:02.147Z,57.60
2017-06-16T03:49:29.698Z,57.60
2017-06-16T03:51:57.254Z,57.50
2017-06-16T03:54:24.775Z,57.60
2017-06-16T03:56:53.164Z,57.80
2017-06-16T03:59:21.472Z,57.90
2017-06-16T04:01:48.975Z,57.90
2017-06-16T04:04:16.494Z,57.80
2017-06-16T04:06:43.999Z,57.90
2017-06-16T04:09:11.519Z,57.70
2017-06-16T04:11:39.059Z,57.70
2017-06-16T04:14:06.621Z,57.60
2017-06-16T04:16:34.123Z,57.40
2017-06-16T04:19:01.735Z,57.60
2017-06-16T04:21:29.259Z,57.30
2017-06-16T04:23:57.747Z,57.10
2017-06-16T04:26:26.031Z,57.00
2017-06-16T04:28:55.127Z,57.50
2017-06-16T04:31:23.474Z,57.30
2017-06-16T04:33:50.975Z,57.20
2017-06-16T04:36:18.539Z,57.30
2017-06-16T04:38:46.099Z,57.50
2017-06-16T04:41:13.623Z,57.30
2017-06-16T04:43:41.894Z,56.60
2017-06-16T04:46:09.400Z,57.00
2017-06-16T04:48:36.950Z,56.90
2017-06-16T04:51:05.255Z,56.80
2017-06-16T04:53:32.779Z,56.60
2017-06-16T04:56:00.354Z,56.90
2017-06-16T04:58:27.871Z,56.50
2017-06-16T05:00:56.143Z,56.40
2017-06-16T05:03:23.714Z,56.40
2017-06-16T05:05:51.982Z,56.50
2017-06-16T05:08:20.283Z,56.60
2017-06-16T05:10:47.847Z,56.60
2017-06-16T05:13:15.407Z,56.70
2017-06-16T05:15:42.927Z,56.70
2017-06-16T05:18:10.435Z,56.90
2017-06-16T05:20:37.979Z,57.10
2017-06-16T05:23:11.230Z,56.90
2017-06-16T05:25:38.835Z,57.40
2017-06-16T05:28:06.334Z,57.50
2017-06-16T05:30:33.951Z,57.20
2017-06-16T05:33:01.971Z,57.40
2017-06-16T05:35:29.578Z,56.90
2017-06-16T05:37:57.145Z,56.00
2017-06-16T05:40:24.700Z,56.20
2017-06-16T05:42:52.616Z,55.80
2017-06-16T05:45:20.140Z,55.90
2017-06-16T05:47:47.642Z,55.80
2017-06-16T05:50:15.159Z,55.70
2017-06-16T05:52:42.663Z,55.00
2017-06-16T05:55:10.259Z,55.30
2017-06-16T05:57:37.818Z,54.90
2017-06-16T06:00:06.232Z,54.60
2017-06-16T06:02:33.850Z,55.10
2017-06-16T06:05:01.364Z,56.00
2017-06-16T06:07:28.975Z,55.80
2017-06-16T06:09:57.103Z,55.10
2017-06-16T06:12:24.706Z,54.10
2017-06-16T06:14:52.263Z,53.20
2017-06-16T06:17:19.928Z,52.40
2017-06-16T06:19:47.770Z,50.40
2017-06-16T06:22:16.058Z,49.30
2017-06-16T06:24:44.058Z,49.20
2017-06-16T06:27:11.771Z,50.00
2017-06-16T06:29:40.079Z,48.80
2017-06-16T06:32:07.584Z,48.80
2017-06-16T06:34:35.102Z,49.30
2017-06-16T06:37:03.320Z,49.60
2017-06-16T06:39:30.843Z,49.80
2017-06-16T06:41:58.347Z,50.70
2017-06-16T06:44:25.953Z,51.50
2017-06-16T06:46:54.071Z,52.30
2017-06-16T06:49:21.611Z,53.10
2017-06-16T06:51:49.115Z,53.30
2017-06-16T06:54:17.407Z,53.60
2017-06-16T06:56:44.968Z,53.60
2017-06-16T06:59:12.470Z,53.90
2017-06-16T07:01:39.993Z,54.30
2017-06-16T07:04:07.547Z,53.50
2017-06-16T07:06:35.099Z,52.70
2017-06-16T07:09:02.607Z,52.40
2017-06-16T07:11:30.142Z,53.10
2017-06-16T07:13:57.646Z,53.30
2017-06-16T07:16:26.051Z,54.80
2017-06-16T07:18:53.550Z,54.80
2017-06-16T07:21:21.274Z,53.00
2017-06-16T07:23:48.800Z,52.40
2017-06-16T07:26:17.070Z,49.90
2017-06-16T07:28:44.591Z,49.80
2017-06-16T07:31:12.123Z,48.60
2017-06-16T07:33:39.643Z,48.60
2017-06-16T07:36:07.253Z,48.40
2017-06-16T07:38:34.808Z,48.60
2017-06-16T07:41:02.312Z,48.50
2017-06-16T07:43:29.835Z,48.00
2017-06-16T07:45:57.567Z,47.50
2017-06-16T07:48:25.091Z,45.80
2017-06-16T07:50:53.415Z,44.70
2017-06-16T07:53:20.923Z,44.30
2017-06-16T07:55:48.540Z,44.10
2017-06-16T07:58:16.100Z,44.60
2017-06-16T08:00:43.623Z,45.20
2017-06-16T08:03:11.895Z,45.90
2017-06-16T08:05:40.203Z,46.10
2017-06-16T08:08:08.200Z,45.60
2017-06-16T08:10:35.720Z,46.40
2017-06-16T08:13:03.872Z,47.10
2017-06-16T08:15:32.497Z,47.20
2017-06-16T08:18:00.004Z,47.20
2017-06-16T08:20:27.859Z,46.60
2017-06-16T08:22:55.363Z,47.10
2017-06-16T08:25:23.226Z,47.70
2017-06-16T08:27:50.751Z,43.40
2017-06-16T08:30:18.354Z,43.00
2017-06-16T08:32:45.912Z,43.70
2017-06-16T08:35:13.467Z,41.80
2017-06-16T08:37:40.990Z,42.00
2017-06-16T08:40:09.411Z,41.20
2017-06-16T08:42:36.931Z,42.10
2017-06-16T08:45:05.212Z,42.10
2017-06-16T08:47:33.510Z,39.40
2017-06-16T08:50:01.016Z,39.40
2017-06-16T08:52:28.543Z,38.10
2017-06-16T08:54:56.095Z,40.60
2017-06-16T08:57:23.618Z,41.20
2017-06-16T08:59:51.932Z,40.70
2017-06-16T09:02:19.487Z,40.50
2017-06-16T09:04:47.007Z,39.80
2017-06-16T09:07:15.283Z,40.60
2017-06-16T09:09:42.825Z,40.30
2017-06-16T09:12:10.697Z,41.30
2017-06-16T09:14:38.218Z,41.10
2017-06-16T09:17:06.543Z,41.10
2017-06-16T09:19:34.138Z,41.60
2017-06-16T09:22:01.639Z,42.30
2017-06-16T09:24:29.161Z,42.60
2017-06-16T09:26:56.731Z,41.30
2017-06-16T09:29:24.251Z,40.60
2017-06-16T09:31:52.552Z,39.60
2017-06-16T09:34:20.107Z,39.60
2017-06-16T09:36:47.667Z,39.30
2017-06-16T09:39:15.207Z,40.60
2017-06-16T09:41:43.499Z,39.60
2017-06-16T09:44:11.007Z,39.60
2017-06-16T09:46:38.625Z,39.60
2017-06-16T09:49:06.185Z,38.80
2017-06-16T09:51:33.740Z,38.70
2017-06-16T09:54:01.247Z,39.90
2017-06-16T09:56:28.855Z,40.50
2017-06-16T09:58:56.366Z,40.10
2017-06-16T10:01:23.971Z,41.30
2017-06-16T10:03:51.531Z,40.20
2017-06-16T10:06:19.092Z,40.70
2017-06-16T10:08:46.596Z,40.70
2017-06-16T10:11:14.120Z,42.20
2017-06-16T10:13:41.626Z,42.10
2017-06-16T10:16:09.146Z,40.60
2017-06-16T10:18:36.651Z,42.10
2017-06-16T10:21:04.959Z,43.00
2017-06-16T10:23:33.247Z,42.90
2017-06-16T10:26:01.071Z,42.20
2017-06-16T10:28:29.375Z,41.80
2017-06-16T10:30:56.884Z,41.70
2017-06-16T10:33:24.501Z,42.70
2017-06-16T10:35:52.055Z,41.70
2017-06-16T10:38:20.396Z,39.40
2017-06-16T10:40:48.667Z,42.00
2017-06-16T10:43:16.979Z,41.80
2017-06-16T10:45:44.482Z,42.40
2017-06-16T10:48:12.378Z,41.20
2017-06-16T10:50:41.127Z,39.80
2017-06-16T10:53:08.811Z,39.70
2017-06-16T10:55:36.411Z,39.60
2017-06-16T10:58:03.975Z,40.50
2017-06-16T11:00:32.281Z,41.10
2017-06-16T11:02:59.789Z,39.70
2017-06-16T11:05:28.076Z,39.40
2017-06-16T11:07:55.589Z,39.30
2017-06-16T11:10:23.115Z,40.00
2017-06-16T11:12:50.659Z,40.30
2017-06-16T11:15:18.219Z,40.20
2017-06-16T11:17:45.728Z,39.10
2017-06-16T11:20:13.251Z,39.50
2017-06-16T11:22:40.791Z,40.00
2017-06-16T11:25:08.351Z,40.30
2017-06-16T11:27:35.860Z,39.80
2017-06-16T11:30:03.394Z,41.20
2017-06-16T11:32:30.923Z,42.10
2017-06-16T11:34:58.492Z,42.30
2017-06-16T11:37:26.010Z,43.00
2017-06-16T11:39:54.283Z,43.30
2017-06-16T11:42:21.803Z,42.60
2017-06-16T11:44:49.307Z,39.00
2017-06-16T11:47:17.616Z,41.30
2017-06-16T11:49:45.123Z,41.20
2017-06-16T11:52:12.655Z,40.90
2017-06-16T11:54:40.158Z,41.80
2017-06-16T11:57:08.451Z,41.90
2017-06-16T11:59:36.019Z,41.90
2017-06-16T12:02:03.579Z,42.00
2017-06-16T12:04:31.139Z,41.80
2017-06-16T12:06:58.647Z,39.90
2017-06-16T12:09:26.167Z,40.60
2017-06-16T12:11:53.819Z,41.20
2017-06-16T12:14:21.379Z,42.20
2017-06-16T12:16:48.935Z,41.50
2017-06-16T12:19:16.454Z,39.70
2017-06-16T12:21:43.959Z,39.80
2017-06-16T12:24:12.067Z,40.30
2017-06-16T12:26:39.567Z,41.30
2017-06-16T12:29:07.136Z,41.60
2017-06-16T12:31:34.651Z,40.90
2017-06-16T12:34:02.175Z,40.20
2017-06-16T12:36:29.715Z,40.20
2017-06-16T12:38:57.503Z,40.70
2017-06-16T12:41:25.035Z,40.30
2017-06-16T12:43:52.539Z,40.70
2017-06-16T12:46:20.380Z,40.50
2017-06-16T12:48:48.029Z,40.10
2017-06-16T12:51:15.579Z,40.10
2017-06-16T12:53:44.070Z,40.20
2017-06-16T12:56:11.616Z,41.00
2017-06-16T12:58:39.895Z,40.70
2017-06-16T13:01:07.759Z,41.10
2017-06-16T13:03:36.084Z,42.00
2017-06-16T13:06:03.619Z,40.80
2017-06-16T13:08:31.551Z,39.30
2017-06-16T13:10:59.075Z,39.80
2017-06-16T13:13:26.907Z,40.30
2017-06-16T13:15:54.446Z,40.10
2017-06-16T13:18:21.952Z,40.40
2017-06-16T13:20:49.563Z,39.50
2017-06-16T13:23:17.087Z,40.40
2017-06-16T13:25:45.358Z,42.20
2017-06-16T13:28:12.875Z,41.60
2017-06-16T13:30:40.379Z,41.80
2017-06-16T13:33:08.680Z,41.30
2017-06-16T13:35:36.184Z,41.30
2017-06-16T13:38:03.803Z,42.00
2017-06-16T13:40:31.314Z,41.20
2017-06-16T13:42:58.927Z,41.60
2017-06-16T13:45:26.994Z,41.40
2017-06-16T13:47:54.555Z,41.60
2017-06-16T13:50:22.115Z,40.50
2017-06-16T13:52:49.658Z,40.10
2017-06-16T13:55:17.825Z,40.60
2017-06-16T13:57:46.121Z,40.70
2017-06-16T14:00:13.646Z,40.60
2017-06-16T14:02:42.780Z,40.40
2017-06-16T14:05:10.303Z,40.40
2017-06-16T14:07:38.579Z,39.90
2017-06-16T14:10:06.867Z,39.30
2017-06-16T14:12:35.158Z,39.30
2017-06-16T14:15:02.686Z,39.30
2017-06-16T14:17:30.995Z,39.50
2017-06-16T14:19:58.550Z,40.00
2017-06-16T14:22:26.059Z,40.30
2017-06-16T14:24:53.580Z,40.20
2017-06-16T14:27:21.136Z,40.60
2017-06-16T14:29:49.120Z,39.90
2017-06-16T14:32:16.622Z,40.20
2017-06-16T14:34:44.166Z,41.40
2017-06-16T14:37:11.667Z,39.40
2017-06-16T14:39:39.171Z,39.60
2017-06-16T14:42:06.793Z,39.40
2017-06-16T14:44:34.360Z,39.40
2017-06-16T14:47:01.909Z,39.90
2017-06-16T14:49:29.467Z,39.60
2017-06-16T14:51:56.990Z,37.30
2017-06-16T14:54:24.497Z,38.30
2017-06-16T14:56:52.019Z,38.20
2017-06-16T14:59:20.314Z,37.80
2017-06-16T15:01:48.618Z,37.80
2017-06-16T15:04:16.131Z,38.20
2017-06-16T15:06:44.522Z,37.80
2017-06-16T15:09:12.027Z,37.70
2017-06-16T15:11:39.647Z,37.70
2017-06-16T15:14:07.151Z,37.20
2017-06-16T15:16:34.663Z,37.70
2017-06-16T15:19:02.187Z,38.60
2017-06-16T15:21:34.535Z,37.80
2017-06-16T15:24:02.154Z,37.10
2017-06-16T15:26:29.660Z,36.80
2017-06-16T15:28:57.178Z,37.00
2017-06-16T15:31:24.687Z,37.10
2017-06-16T15:33:52.206Z,36.80
2017-06-16T15:36:19.711Z,36.40
2017-06-16T15:38:48.059Z,37.10
2017-06-16T15:41:15.564Z,36.40
2017-06-16T15:43:43.138Z,36.10
2017-06-16T15:46:10.644Z,36.40
2017-06-16T15:48:38.238Z,37.10
2017-06-16T15:51:05.760Z,37.40
2017-06-16T15:53:33.295Z,37.30
2017-06-16T15:56:01.259Z,37.50
2017-06-16T15:58:28.767Z,37.30
2017-06-16T16:00:57.075Z,37.50
2017-06-16T16:03:24.581Z,37.90
2017-06-16T16:05:52.191Z,37.70
2017-06-16T16:08:19.750Z,38.40
2017-06-16T16:10:47.271Z,37.70
2017-06-16T16:13:14.868Z,36.90
2017-06-16T16:15:42.426Z,36.80
2017-06-16T16:18:09.989Z,36.60
2017-06-16T16:20:37.552Z,36.70
2017-06-16T16:23:05.059Z,35.60
2017-06-16T16:25:32.604Z,35.00
2017-06-16T16:28:00.107Z,35.00
2017-06-16T16:30:27.611Z,34.70
2017-06-16T16:32:55.138Z,35.10
2017-06-16T16:35:22.647Z,34.50
2017-06-16T16:37:50.175Z,35.30
2017-06-16T16:40:17.679Z,36.00
2017-06-16T16:42:45.968Z,36.30
2017-06-16T16:45:14.775Z,36.20
2017-06-16T16:47:42.299Z,36.10
2017-06-16T16:50:10.611Z,37.90
2017-06-16T16:52:38.170Z,37.20
2017-06-16T16:55:05.831Z,37.70
2017-06-16T16:57:33.333Z,38.50
2017-06-16T17:00:01.151Z,39.10
2017-06-16T17:02:29.035Z,39.90
2017-06-16T17:04:56.575Z,40.20
2017-06-16T17:07:24.083Z,40.80
2017-06-16T17:09:51.607Z,41.40
2017-06-16T17:12:19.663Z,41.90
2017-06-16T17:14:47.182Z,42.10
2017-06-16T17:17:14.688Z,41.70
2017-06-16T17:19:42.238Z,42.10
2017-06-16T17:22:09.795Z,42.30
2017-06-16T17:24:37.994Z,42.60
2017-06-16T17:27:05.642Z,42.50
2017-06-16T17:29:33.192Z,42.70
2017-06-16T17:32:00.757Z,42.80
2017-06-16T17:34:28.319Z,42.80
2017-06-16T17:36:55.867Z,42.70
2017-06-16T17:39:24.171Z,42.30
2017-06-16T17:41:51.703Z,42.60
2017-06-16T17:44:19.259Z,42.50
2017-06-16T17:46:46.850Z,42.60
2017-06-16T17:49:14.358Z,43.00
2017-06-16T17:51:42.760Z,43.30
2017-06-16T17:54:10.283Z,43.30
2017-06-16T17:56:38.579Z,43.60
2017-06-16T17:59:06.122Z,43.50
2017-06-16T18:01:34.434Z,44.10
2017-06-16T18:04:01.939Z,44.10
2017-06-16T18:06:29.959Z,44.90
2017-06-16T18:08:57.482Z,44.70
2017-06-16T18:11:25.757Z,44.80
2017-06-16T18:13:54.062Z,45.00
2017-06-16T18:16:21.567Z,44.80
2017-06-16T18:18:49.183Z,45.00
2017-06-16T18:21:16.689Z,45.10
2017-06-16T18:23:44.214Z,45.20
2017-06-16T18:26:11.755Z,45.40
2017-06-16T18:28:39.278Z,45.40
2017-06-16T18:31:06.869Z,45.40
2017-06-16T18:33:34.414Z,45.30
2017-06-16T18:36:02.687Z,45.90
2017-06-16T18:38:31.738Z,46.10
2017-06-16T18:40:59.259Z,46.00
2017-06-16T18:43:27.440Z,46.30
2017-06-16T18:45:54.959Z,46.60
2017-06-16T18:48:23.231Z,47.30
2017-06-16T18:50:50.827Z,46.60
2017-06-16T18:53:18.547Z,46.70
2017-06-16T18:55:46.151Z,46.50
2017-06-16T18:58:14.156Z,46.80
2017-06-16T19:00:41.835Z,47.00
2017-06-16T19:03:09.448Z,47.10
2017-06-16T19:05:36.977Z,47.10
2017-06-16T19:08:06.023Z,47.50
2017-06-16T19:10:33.547Z,47.50
2017-06-16T19:13:01.321Z,47.40
2017-06-16T19:15:28.874Z,47.50
2017-06-16T19:17:56.460Z,47.60
2017-06-16T19:20:23.977Z,47.80
2017-06-16T19:22:51.509Z,48.00
2017-06-16T19:25:19.831Z,48.30
2017-06-16T19:27:47.356Z,48.30
2017-06-16T19:30:15.630Z,48.40
2017-06-16T19:32:43.918Z,49.20
2017-06-16T19:35:12.187Z,48.70
2017-06-16T19:37:40.479Z,48.40
2017-06-16T19:40:07.987Z,48.40
2017-06-16T19:42:35.528Z,48.50
2017-06-16T19:45:03.035Z,48.60
2017-06-16T19:47:31.348Z,48.60
2017-06-16T19:49:58.874Z,48.70
2017-06-16T19:52:27.146Z,48.90
2017-06-16T19:54:55.450Z,49.00
2017-06-16T19:57:23.011Z,48.90
2017-06-16T19:59:50.539Z,48.90
2017-06-16T20:02:18.856Z,49.30
2017-06-16T20:04:46.407Z,49.20
2017-06-16T20:07:13.919Z,49.20
2017-06-16T20:09:41.438Z,49.20
2017-06-16T20:12:08.943Z,49.50
2017-06-16T20:14:36.464Z,49.60
2017-06-16T20:17:03.978Z,49.70
2017-06-16T20:19:31.527Z,49.90
2017-06-16T20:21:59.808Z,50.10
2017-06-16T20:24:28.107Z,50.20
2017-06-16T20:26:55.630Z,50.20
2017-06-16T20:29:23.907Z,51.10
2017-06-16T20:31:52.221Z,50.50
2017-06-16T20:34:20.392Z,50.40
2017-06-16T20:36:48.767Z,50.60
2017-06-16T20:39:16.667Z,50.60
2017-06-16T20:41:44.296Z,50.80
2017-06-16T20:44:11.803Z,50.80
2017-06-16T20:46:39.411Z,50.80
2017-06-16T20:49:06.975Z,50.80
2017-06-16T20:51:34.844Z,51.10
2017-06-16T20:54:02.397Z,51.20
2017-06-16T20:56:29.902Z,51.30
2017-06-16T20:58:57.515Z,51.50
2017-06-16T21:01:25.023Z,51.50
2017-06-16T21:03:52.851Z,51.70
2017-06-16T21:06:20.411Z,51.90
2017-06-16T21:08:47.955Z,52.00
2017-06-16T21:11:15.463Z,52.10
2017-06-16T21:13:43.071Z,52.20
2017-06-16T21:16:11.143Z,52.30
2017-06-16T21:18:38.686Z,52.50
2017-06-16T21:21:12.609Z,52.70
2017-06-16T21:23:40.166Z,52.60
2017-06-16T21:26:07.679Z,52.70
2017-06-16T21:28:35.296Z,52.80
2017-06-16T21:31:02.854Z,52.80
2017-06-16T21:33:30.368Z,52.70
2017-06-16T21:35:57.966Z,52.60
2017-06-16T21:38:25.650Z,52.70
2017-06-16T21:40:53.187Z,52.90
2017-06-16T21:43:20.747Z,52.00
2017-06-16T21:45:48.267Z,51.70
2017-06-16T21:48:16.579Z,52.00
2017-06-16T21:50:44.131Z,51.30
2017-06-16T21:53:11.799Z,51.20
2017-06-16T21:55:39.307Z,51.40
2017-06-16T21:58:06.915Z,51.50
2017-06-16T22:00:34.931Z,51.10
2017-06-16T22:03:02.543Z,51.20
2017-06-16T22:05:30.048Z,51.40
2017-06-16T22:07:57.571Z,51.10
2017-06-16T22:10:25.119Z,51.10
2017-06-16T22:12:52.643Z,51.00
2017-06-16T22:15:20.187Z,51.10
2017-06-16T22:17:47.708Z,51.10
2017-06-16T22:20:15.207Z,51.30
2017-06-16T22:22:42.728Z,51.40
2017-06-16T22:25:10.843Z,50.80
2017-06-16T22:27:38.451Z,51.20
2017-06-16T22:30:05.964Z,51.00
2017-06-16T22:32:33.703Z,51.20
2017-06-16T22:35:01.327Z,51.20
2017-06-16T22:37:28.839Z,51.50
2017-06-16T22:39:56.367Z,51.50
2017-06-16T22:42:23.899Z,51.50
2017-06-16T22:44:51.431Z,51.80
2017-06-16T22:47:19.707Z,52.10
2017-06-16T22:49:48.047Z,52.10
2017-06-16T22:52:15.556Z,52.10
2017-06-16T22:54:43.852Z,52.00
2017-06-16T22:57:11.355Z,52.10
2017-06-16T22:59:38.973Z,52.40
2017-06-16T23:02:06.528Z,52.60
2017-06-16T23:04:34.080Z,52.70
2017-06-16T23:07:01.589Z,52.70
2017-06-16T23:09:29.105Z,52.90
2017-06-16T23:11:56.655Z,53.00
2017-06-16T23:14:24.226Z,53.10
2017-06-16T23:16:51.751Z,53.30
2017-06-16T23:19:20.051Z,53.70
2017-06-16T23:21:47.572Z,53.70
2017-06-16T23:24:15.849Z,54.10
2017-06-16T23:26:43.439Z,53.80
2017-06-16T23:29:11.008Z,54.00
2017-06-16T23:31:38.528Z,53.90
2017-06-16T23:34:06.803Z,54.30
2017-06-16T23:36:34.347Z,54.30
2017-06-16T23:39:02.472Z,54.30
2017-06-16T23:41:29.978Z,55.00
2017-06-16T23:43:58.199Z,54.50
2017-06-16T23:46:25.703Z,54.40
2017-06-16T23:48:53.224Z,54.60
2017-06-16T23:51:21.619Z,54.60
2017-06-16T23:53:49.143Z,54.70
2017-06-16T23:56:16.652Z,54.80
2017-06-16T23:58:44.266Z,54.70
